Huvudsida
METAR-TAF:

METAR-TAF

Flygplatser :

Midland, Texas, USA

latitud: 32-02-11N, longitud: 102-06-03W, höjd: 854 m

Aktuellt väderrapport

Denna rapport gjordes för 20 minuter sedan, klockan 09:35 UTC
Vind 14 kt från syd i byarna ända upp till 19 kt
Temperatur 23°C
Fuktighet 83%
Tryck 1011 hPa
Sikt: 16.1 km

METAR: KMDD 270935Z AUTO 19014G19KT 10SM 23/20 A2986 RMK AO2 T02300196

Tid: 04:55 (09:55 UTC)


TAF: saknas

Aktuella väderrapporter och prognoser från 4000 flygplatser (METAR- och TAF-rapporter).

De tillgängliga stationerna syns som gula och röda prickar på kartan.

För musen över prickarna för att se namnen på stationerna.

Klicka sedan för att få väderrapporter och prognoser.

För att ändra kartan: Klicka på de gröna knapparna med ett svart kors på för att zooma in; den gröna knappen med ett streck på för att zooma ut; eller på de gröna pilarna för angränsande kartor.


METAR-TAF: